sensor_id;sensor_type;location;lat;lon;timestamp;pressure;altitude;pressure_sealevel;temperature;humidity
22872;BME280;11603;44.910;8.630;2023-05-29T00:02:13;100415.00;;;21.74;100.00
22872;BME280;11603;44.910;8.630;2023-05-29T00:04:39;100417.91;;;21.64;100.00
22872;BME280;11603;44.910;8.630;2023-05-29T00:07:04;100417.41;;;21.44;100.00
22872;BME280;11603;44.910;8.630;2023-05-29T00:09:30;100413.97;;;21.42;100.00
22872;BME280;11603;44.910;8.630;2023-05-29T00:11:55;100421.13;;;21.35;100.00
22872;BME280;11603;44.910;8.630;2023-05-29T00:14:21;100424.84;;;21.26;100.00
22872;BME280;11603;44.910;8.630;2023-05-29T00:16:49;100421.44;;;21.16;100.00
22872;BME280;11603;44.910;8.630;2023-05-29T00:19:16;100422.28;;;21.17;100.00
22872;BME280;11603;44.910;8.630;2023-05-29T00:21:49;100417.53;;;21.19;100.00
22872;BME280;11603;44.910;8.630;2023-05-29T00:24:15;100424.13;;;21.08;100.00
22872;BME280;11603;44.910;8.630;2023-05-29T00:26:41;100422.06;;;21.10;100.00
22872;BME280;11603;44.910;8.630;2023-05-29T00:29:07;100420.53;;;21.07;100.00
22872;BME280;11603;44.910;8.630;2023-05-29T00:31:33;100414.59;;;21.04;100.00
22872;BME280;11603;44.910;8.630;2023-05-29T00:33:58;100416.09;;;20.98;100.00
22872;BME280;11603;44.910;8.630;2023-05-29T00:36:24;100420.00;;;20.88;100.00
22872;BME280;11603;44.910;8.630;2023-05-29T00:38:50;100416.06;;;20.82;100.00
22872;BME280;11603;44.910;8.630;2023-05-29T00:41:16;100418.06;;;20.72;100.00
22872;BME280;11603;44.910;8.630;2023-05-29T00:43:42;100407.66;;;20.67;100.00
22872;BME280;11603;44.910;8.630;2023-05-29T00:46:12;100415.81;;;20.67;100.00
22872;BME280;11603;44.910;8.630;2023-05-29T00:48:38;100414.63;;;20.62;100.00
22872;BME280;11603;44.910;8.630;2023-05-29T00:51:03;100410.38;;;20.59;100.00
22872;BME280;11603;44.910;8.630;2023-05-29T00:53:30;100420.88;;;20.54;100.00
22872;BME280;11603;44.910;8.630;2023-05-29T00:55:57;100417.09;;;20.47;100.00
22872;BME280;11603;44.910;8.630;2023-05-29T00:58:23;100418.44;;;20.43;100.00
22872;BME280;11603;44.910;8.630;2023-05-29T01:00:49;100429.81;;;20.39;100.00
22872;BME280;11603;44.910;8.630;2023-05-29T01:03:16;100417.38;;;20.36;100.00
22872;BME280;11603;44.910;8.630;2023-05-29T01:05:42;100422.00;;;20.36;100.00
22872;BME280;11603;44.910;8.630;2023-05-29T01:08:07;100414.84;;;20.35;100.00
22872;BME280;11603;44.910;8.630;2023-05-29T01:10:35;100426.56;;;20.35;100.00
22872;BME280;11603;44.910;8.630;2023-05-29T01:13:22;100421.13;;;20.35;100.00
22872;BME280;11603;44.910;8.630;2023-05-29T01:16:01;100434.47;;;20.28;100.00
22872;BME280;11603;44.910;8.630;2023-05-29T01:27:03;100437.84;;;19.97;100.00
22872;BME280;11603;44.910;8.630;2023-05-29T01:29:32;100444.97;;;19.98;100.00
22872;BME280;11603;44.910;8.630;2023-05-29T01:32:00;100433.28;;;19.97;100.00
22872;BME280;11603;44.910;8.630;2023-05-29T01:34:27;100435.28;;;19.95;100.00
22872;BME280;11603;44.910;8.630;2023-05-29T01:36:53;100434.41;;;19.95;100.00
22872;BME280;11603;44.910;8.630;2023-05-29T01:39:19;100436.13;;;19.96;100.00
22872;BME280;11603;44.910;8.630;2023-05-29T01:41:46;100443.59;;;19.94;100.00
22872;BME280;11603;44.910;8.630;2023-05-29T01:44:13;100451.91;;;19.92;100.00
22872;BME280;11603;44.910;8.630;2023-05-29T01:46:40;100440.88;;;19.94;100.00
22872;BME280;11603;44.910;8.630;2023-05-29T01:49:06;100437.13;;;19.95;100.00
22872;BME280;11603;44.910;8.630;2023-05-29T01:51:33;100442.03;;;19.91;100.00
22872;BME280;11603;44.910;8.630;2023-05-29T01:53:59;100439.81;;;19.86;100.00
22872;BME280;11603;44.910;8.630;2023-05-29T01:56:28;100435.91;;;19.89;100.00
22872;BME280;11603;44.910;8.630;2023-05-29T01:58:56;100444.53;;;19.84;100.00
22872;BME280;11603;44.910;8.630;2023-05-29T02:01:22;100449.59;;;19.79;100.00
22872;BME280;11603;44.910;8.630;2023-05-29T02:03:48;100451.63;;;19.77;100.00
22872;BME280;11603;44.910;8.630;2023-05-29T02:06:13;100446.56;;;19.82;100.00
22872;BME280;11603;44.910;8.630;2023-05-29T02:08:39;100451.28;;;19.80;100.00
22872;BME280;11603;44.910;8.630;2023-05-29T02:11:04;100459.44;;;19.80;100.00
22872;BME280;11603;44.910;8.630;2023-05-29T02:13:31;100464.09;;;19.70;100.00
22872;BME280;11603;44.910;8.630;2023-05-29T02:15:56;100464.09;;;19.70;100.00
22872;BME280;11603;44.910;8.630;2023-05-29T02:18:23;100470.00;;;19.66;100.00
22872;BME280;11603;44.910;8.630;2023-05-29T02:20:49;100460.00;;;19.66;100.00
22872;BME280;11603;44.910;8.630;2023-05-29T02:23:21;100461.97;;;19.56;100.00
22872;BME280;11603;44.910;8.630;2023-05-29T02:25:47;100471.97;;;19.56;100.00
22872;BME280;11603;44.910;8.630;2023-05-29T02:28:12;100462.56;;;19.50;100.00
22872;BME280;11603;44.910;8.630;2023-05-29T02:30:39;100463.25;;;19.34;100.00
22872;BME280;11603;44.910;8.630;2023-05-29T02:33:04;100462.72;;;19.31;100.00
22872;BME280;11603;44.910;8.630;2023-05-29T02:35:33;100469.81;;;19.32;100.00
22872;BME280;11603;44.910;8.630;2023-05-29T02:37:58;100468.97;;;19.31;100.00
22872;BME280;11603;44.910;8.630;2023-05-29T02:40:24;100469.41;;;19.27;100.00
22872;BME280;11603;44.910;8.630;2023-05-29T02:42:49;100457.31;;;19.21;100.00
22872;BME280;11603;44.910;8.630;2023-05-29T02:45:16;100454.19;;;19.26;100.00
22872;BME280;11603;44.910;8.630;2023-05-29T02:47:41;100458.56;;;19.27;100.00
22872;BME280;11603;44.910;8.630;2023-05-29T02:50:08;100455.72;;;19.28;100.00
22872;BME280;11603;44.910;8.630;2023-05-29T02:52:34;100456.19;;;19.24;100.00
22872;BME280;11603;44.910;8.630;2023-05-29T02:55:00;100449.03;;;19.23;100.00
22872;BME280;11603;44.910;8.630;2023-05-29T02:57:25;100446.03;;;19.26;100.00
22872;BME280;11603;44.910;8.630;2023-05-29T02:59:51;100448.19;;;19.22;100.00
22872;BME280;11603;44.910;8.630;2023-05-29T03:02:17;100450.91;;;19.22;100.00
22872;BME280;11603;44.910;8.630;2023-05-29T03:04:44;100456.50;;;19.21;100.00
22872;BME280;11603;44.910;8.630;2023-05-29T03:07:12;100455.53;;;19.12;100.00
22872;BME280;11603;44.910;8.630;2023-05-29T03:09:38;100466.16;;;19.05;100.00
22872;BME280;11603;44.910;8.630;2023-05-29T03:12:04;100465.34;;;18.95;100.00
22872;BME280;11603;44.910;8.630;2023-05-29T03:14:29;100472.50;;;18.96;100.00
22872;BME280;11603;44.910;8.630;2023-05-29T03:16:56;100469.91;;;18.95;100.00
22872;BME280;11603;44.910;8.630;2023-05-29T03:19:21;100479.56;;;18.80;100.00
22872;BME280;11603;44.910;8.630;2023-05-29T03:21:47;100486.75;;;18.71;100.00
22872;BME280;11603;44.910;8.630;2023-05-29T03:24:12;100477.31;;;18.75;100.00
22872;BME280;11603;44.910;8.630;2023-05-29T03:26:41;100479.34;;;18.73;100.00
22872;BME280;11603;44.910;8.630;2023-05-29T03:29:08;100489.59;;;18.70;100.00
22872;BME280;11603;44.910;8.630;2023-05-29T03:31:35;100491.50;;;18.59;100.00
22872;BME280;11603;44.910;8.630;2023-05-29T03:34:00;100490.19;;;18.63;100.00
22872;BME280;11603;44.910;8.630;2023-05-29T03:36:39;100494.56;;;18.74;100.00
22872;BME280;11603;44.910;8.630;2023-05-29T03:39:06;100497.00;;;18.77;100.00
22872;BME280;11603;44.910;8.630;2023-05-29T03:41:32;100499.13;;;18.74;100.00
22872;BME280;11603;44.910;8.630;2023-05-29T03:43:58;100487.16;;;18.76;100.00
22872;BME280;11603;44.910;8.630;2023-05-29T03:46:25;100496.09;;;18.86;100.00
22872;BME280;11603;44.910;8.630;2023-05-29T03:48:52;100489.94;;;18.84;100.00
22872;BME280;11603;44.910;8.630;2023-05-29T03:51:18;100492.25;;;18.89;100.00
22872;BME280;11603;44.910;8.630;2023-05-29T03:53:44;100480.09;;;18.93;100.00
22872;BME280;11603;44.910;8.630;2023-05-29T03:56:10;100475.50;;;18.93;100.00
22872;BME280;11603;44.910;8.630;2023-05-29T03:58:35;100483.19;;;18.98;100.00
22872;BME280;11603;44.910;8.630;2023-05-29T04:01:04;100479.31;;;19.00;100.00
22872;BME280;11603;44.910;8.630;2023-05-29T04:03:31;100485.84;;;19.08;100.00
22872;BME280;11603;44.910;8.630;2023-05-29T04:05:57;100486.16;;;19.04;100.00
22872;BME280;11603;44.910;8.630;2023-05-29T04:08:23;100489.22;;;18.92;100.00
22872;BME280;11603;44.910;8.630;2023-05-29T04:10:48;100492.25;;;18.89;100.00
22872;BME280;11603;44.910;8.630;2023-05-29T04:13:14;100494.03;;;18.98;100.00
22872;BME280;11603;44.910;8.630;2023-05-29T04:15:40;100493.25;;;18.88;100.00
22872;BME280;11603;44.910;8.630;2023-05-29T04:18:07;100496.69;;;18.80;100.00
22872;BME280;11603;44.910;8.630;2023-05-29T04:20:33;100496.94;;;18.87;100.00
22872;BME280;11603;44.910;8.630;2023-05-29T04:22:58;100504.03;;;18.97;100.00
22872;BME280;11603;44.910;8.630;2023-05-29T04:25:24;100507.44;;;18.99;100.00
22872;BME280;11603;44.910;8.630;2023-05-29T04:27:50;100517.13;;;19.02;100.00
22872;BME280;11603;44.910;8.630;2023-05-29T04:30:18;100520.28;;;18.97;100.00
22872;BME280;11603;44.910;8.630;2023-05-29T04:32:46;100517.44;;;18.99;100.00
22872;BME280;11603;44.910;8.630;2023-05-29T04:35:12;100524.06;;;18.87;100.00
22872;BME280;11603;44.910;8.630;2023-05-29T04:37:45;100529.78;;;18.84;100.00
22872;BME280;11603;44.910;8.630;2023-05-29T04:40:13;100533.09;;;18.78;100.00
22872;BME280;11603;44.910;8.630;2023-05-29T04:42:43;100535.19;;;18.84;100.00
22872;BME280;11603;44.910;8.630;2023-05-29T04:45:10;100537.59;;;18.87;100.00
22872;BME280;11603;44.910;8.630;2023-05-29T04:47:37;100537.19;;;18.82;100.00
22872;BME280;11603;44.910;8.630;2023-05-29T04:50:16;100544.41;;;18.91;100.00
22872;BME280;11603;44.910;8.630;2023-05-29T04:52:43;100552.69;;;18.89;100.00
22872;BME280;11603;44.910;8.630;2023-05-29T04:55:10;100542.44;;;18.93;100.00
22872;BME280;11603;44.910;8.630;2023-05-29T04:57:36;100539.13;;;18.99;100.00
22872;BME280;11603;44.910;8.630;2023-05-29T05:00:03;100544.88;;;19.14;100.00
22872;BME280;11603;44.910;8.630;2023-05-29T05:02:35;100539.59;;;19.12;100.00
22872;BME280;11603;44.910;8.630;2023-05-29T05:05:02;100533.03;;;19.15;100.00
22872;BME280;11603;44.910;8.630;2023-05-29T05:07:27;100541.84;;;19.17;100.00
22872;BME280;11603;44.910;8.630;2023-05-29T05:09:53;100542.63;;;19.09;100.00
22872;BME280;11603;44.910;8.630;2023-05-29T05:12:22;100552.31;;;19.12;100.00
22872;BME280;11603;44.910;8.630;2023-05-29T05:14:48;100553.31;;;19.11;100.00
22872;BME280;11603;44.910;8.630;2023-05-29T05:17:13;100542.47;;;19.11;100.00
22872;BME280;11603;44.910;8.630;2023-05-29T05:19:39;100546.59;;;19.15;100.00
22872;BME280;11603;44.910;8.630;2023-05-29T05:22:05;100550.56;;;19.20;100.00
22872;BME280;11603;44.910;8.630;2023-05-29T05:24:31;100550.72;;;19.19;100.00
22872;BME280;11603;44.910;8.630;2023-05-29T05:26:57;100556.00;;;19.20;100.00
22872;BME280;11603;44.910;8.630;2023-05-29T05:29:22;100561.09;;;19.23;100.00
22872;BME280;11603;44.910;8.630;2023-05-29T05:31:48;100557.38;;;19.24;100.00
22872;BME280;11603;44.910;8.630;2023-05-29T05:34:13;100550.38;;;19.22;100.00
22872;BME280;11603;44.910;8.630;2023-05-29T05:36:41;100552.91;;;19.33;100.00
22872;BME280;11603;44.910;8.630;2023-05-29T05:39:11;100555.84;;;19.39;100.00
22872;BME280;11603;44.910;8.630;2023-05-29T05:41:37;100557.41;;;19.52;100.00
22872;BME280;11603;44.910;8.630;2023-05-29T05:44:04;100566.94;;;19.56;100.00
22872;BME280;11603;44.910;8.630;2023-05-29T05:46:48;100570.09;;;19.51;100.00
22872;BME280;11603;44.910;8.630;2023-05-29T05:49:14;100562.09;;;19.50;100.00
22872;BME280;11603;44.910;8.630;2023-05-29T05:51:40;100567.22;;;19.53;100.00
22872;BME280;11603;44.910;8.630;2023-05-29T05:54:06;100569.78;;;19.54;100.00
22872;BME280;11603;44.910;8.630;2023-05-29T05:56:32;100570.63;;;19.55;100.00
22872;BME280;11603;44.910;8.630;2023-05-29T05:58:57;100574.06;;;19.57;100.00
22872;BME280;11603;44.910;8.630;2023-05-29T06:01:23;100566.31;;;19.62;100.00
22872;BME280;11603;44.910;8.630;2023-05-29T06:03:49;100564.78;;;19.77;100.00
22872;BME280;11603;44.910;8.630;2023-05-29T06:06:16;100565.31;;;19.80;100.00
22872;BME280;11603;44.910;8.630;2023-05-29T06:08:43;100565.53;;;19.69;100.00
22872;BME280;11603;44.910;8.630;2023-05-29T06:11:10;100571.88;;;19.60;100.00
22872;BME280;11603;44.910;8.630;2023-05-29T06:13:37;100581.28;;;19.66;100.00
22872;BME280;11603;44.910;8.630;2023-05-29T06:16:07;100583.84;;;19.67;100.00
22872;BME280;11603;44.910;8.630;2023-05-29T06:18:34;100587.63;;;19.74;100.00
22872;BME280;11603;44.910;8.630;2023-05-29T06:21:00;100581.13;;;19.85;100.00
22872;BME280;11603;44.910;8.630;2023-05-29T06:23:27;100585.41;;;19.87;100.00
22872;BME280;11603;44.910;8.630;2023-05-29T06:25:53;100599.66;;;19.89;100.00
22872;BME280;11603;44.910;8.630;2023-05-29T06:28:19;100599.91;;;19.96;100.00
22872;BME280;11603;44.910;8.630;2023-05-29T06:30:45;100592.38;;;19.90;100.00
22872;BME280;11603;44.910;8.630;2023-05-29T06:33:11;100592.69;;;19.87;100.00
22872;BME280;11603;44.910;8.630;2023-05-29T06:35:38;100601.97;;;19.84;100.00
22872;BME280;11603;44.910;8.630;2023-05-29T06:38:04;100596.25;;;19.87;100.00
22872;BME280;11603;44.910;8.630;2023-05-29T06:40:30;100596.47;;;19.94;100.00
22872;BME280;11603;44.910;8.630;2023-05-29T06:42:55;100598.66;;;20.08;100.00
22872;BME280;11603;44.910;8.630;2023-05-29T06:45:35;100590.28;;;20.19;100.00
22872;BME280;11603;44.910;8.630;2023-05-29T06:48:00;100584.16;;;20.35;100.00
22872;BME280;11603;44.910;8.630;2023-05-29T06:50:26;100590.72;;;20.50;100.00
22872;BME280;11603;44.910;8.630;2023-05-29T06:52:52;100594.69;;;20.64;100.00
22872;BME280;11603;44.910;8.630;2023-05-29T06:55:34;100600.22;;;20.72;100.00
22872;BME280;11603;44.910;8.630;2023-05-29T06:57:59;100598.16;;;20.74;100.00
22872;BME280;11603;44.910;8.630;2023-05-29T07:00:27;100598.41;;;20.89;100.00
22872;BME280;11603;44.910;8.630;2023-05-29T07:03:20;100597.84;;;21.11;100.00
22872;BME280;11603;44.910;8.630;2023-05-29T07:05:46;100606.03;;;21.11;100.00
22872;BME280;11603;44.910;8.630;2023-05-29T07:08:12;100600.88;;;21.34;100.00
22872;BME280;11603;44.910;8.630;2023-05-29T07:10:37;100595.00;;;21.54;100.00
22872;BME280;11603;44.910;8.630;2023-05-29T07:13:03;100595.75;;;21.31;100.00
22872;BME280;11603;44.910;8.630;2023-05-29T07:15:28;100594.44;;;21.43;100.00
22872;BME280;11603;44.910;8.630;2023-05-29T07:17:55;100596.47;;;21.41;100.00
22872;BME280;11603;44.910;8.630;2023-05-29T07:20:24;100587.94;;;21.36;100.00
22872;BME280;11603;44.910;8.630;2023-05-29T07:22:51;100581.91;;;21.50;100.00
22872;BME280;11603;44.910;8.630;2023-05-29T07:25:17;100580.03;;;21.59;100.00
22872;BME280;11603;44.910;8.630;2023-05-29T07:27:42;100584.13;;;21.54;100.00
22872;BME280;11603;44.910;8.630;2023-05-29T07:30:08;100582.41;;;21.45;100.00
22872;BME280;11603;44.910;8.630;2023-05-29T07:32:35;100573.72;;;21.50;100.00
22872;BME280;11603;44.910;8.630;2023-05-29T07:35:01;100583.28;;;21.62;100.00
22872;BME280;11603;44.910;8.630;2023-05-29T07:37:26;100590.56;;;21.53;100.00
22872;BME280;11603;44.910;8.630;2023-05-29T07:39:52;100584.16;;;21.71;100.00
22872;BME280;11603;44.910;8.630;2023-05-29T07:42:47;100589.50;;;21.96;100.00
22872;BME280;11603;44.910;8.630;2023-05-29T07:45:12;100595.47;;;22.08;100.00
22872;BME280;11603;44.910;8.630;2023-05-29T07:47:38;100592.91;;;22.15;100.00
22872;BME280;11603;44.910;8.630;2023-05-29T07:50:06;100593.78;;;22.23;100.00
22872;BME280;11603;44.910;8.630;2023-05-29T07:52:32;100596.81;;;22.20;100.00
22872;BME280;11603;44.910;8.630;2023-05-29T07:54:58;100597.00;;;22.27;100.00
22872;BME280;11603;44.910;8.630;2023-05-29T07:57:24;100602.78;;;22.40;100.00
22872;BME280;11603;44.910;8.630;2023-05-29T07:59:52;100598.53;;;22.54;100.00
22872;BME280;11603;44.910;8.630;2023-05-29T08:02:17;100603.47;;;22.42;100.00
22872;BME280;11603;44.910;8.630;2023-05-29T08:05:03;100611.13;;;22.30;100.00
22872;BME280;11603;44.910;8.630;2023-05-29T08:07:30;100606.38;;;22.32;100.00
22872;BME280;11603;44.910;8.630;2023-05-29T08:09:56;100612.34;;;22.44;100.00
22872;BME280;11603;44.910;8.630;2023-05-29T08:12:21;100623.75;;;22.31;100.00
22872;BME280;11603;44.910;8.630;2023-05-29T08:14:48;100616.78;;;22.29;100.00
22872;BME280;11603;44.910;8.630;2023-05-29T08:17:14;100618.31;;;22.39;100.00
22872;BME280;11603;44.910;8.630;2023-05-29T08:19:40;100613.34;;;22.43;100.00
22872;BME280;11603;44.910;8.630;2023-05-29T08:22:06;100617.28;;;22.49;100.00
22872;BME280;11603;44.910;8.630;2023-05-29T08:24:32;100617.94;;;22.59;100.00
22872;BME280;11603;44.910;8.630;2023-05-29T08:26:58;100605.50;;;22.72;100.00
22872;BME280;11603;44.910;8.630;2023-05-29T08:29:24;100609.78;;;22.75;100.00
22872;BME280;11603;44.910;8.630;2023-05-29T08:31:51;100606.69;;;22.62;100.00
22872;BME280;11603;44.910;8.630;2023-05-29T08:34:17;100611.50;;;22.76;100.00
22872;BME280;11603;44.910;8.630;2023-05-29T08:36:42;100606.28;;;23.05;100.00
22872;BME280;11603;44.910;8.630;2023-05-29T08:39:08;100601.94;;;23.27;100.00
22872;BME280;11603;44.910;8.630;2023-05-29T08:49:22;100602.94;;;23.34;100.00
22872;BME280;11603;44.910;8.630;2023-05-29T08:51:59;100598.63;;;23.40;100.00
22872;BME280;11603;44.910;8.630;2023-05-29T08:54:31;100600.34;;;23.41;100.00
22872;BME280;11603;44.910;8.630;2023-05-29T08:56:57;100600.22;;;23.34;100.00
22872;BME280;11603;44.910;8.630;2023-05-29T08:59:23;100597.38;;;23.58;100.00
22872;BME280;11603;44.910;8.630;2023-05-29T09:01:50;100608.09;;;23.68;100.00
22872;BME280;11603;44.910;8.630;2023-05-29T09:04:17;100610.66;;;23.70;100.00
22872;BME280;11603;44.910;8.630;2023-05-29T09:06:44;100604.50;;;23.29;100.00
22872;BME280;11603;44.910;8.630;2023-05-29T09:09:10;100601.25;;;23.25;100.00
22872;BME280;11603;44.910;8.630;2023-05-29T09:11:36;100599.38;;;23.26;100.00
22872;BME280;11603;44.910;8.630;2023-05-29T09:14:02;100614.69;;;23.43;100.00
22872;BME280;11603;44.910;8.630;2023-05-29T09:16:28;100606.06;;;23.62;100.00
22872;BME280;11603;44.910;8.630;2023-05-29T09:19:04;100596.63;;;23.73;100.00
22872;BME280;11603;44.910;8.630;2023-05-29T09:21:31;100603.69;;;23.90;100.00
22872;BME280;11603;44.910;8.630;2023-05-29T09:24:04;100600.88;;;23.75;100.00
22872;BME280;11603;44.910;8.630;2023-05-29T09:26:31;100605.91;;;23.55;100.00
22872;BME280;11603;44.910;8.630;2023-05-29T09:28:57;100599.38;;;23.95;100.00
22872;BME280;11603;44.910;8.630;2023-05-29T09:31:23;100591.72;;;24.14;100.00
22872;BME280;11603;44.910;8.630;2023-05-29T09:33:50;100599.91;;;24.22;100.00
22872;BME280;11603;44.910;8.630;2023-05-29T09:36:24;100589.72;;;24.30;100.00
22872;BME280;11603;44.910;8.630;2023-05-29T09:38:51;100596.81;;;24.17;100.00
22872;BME280;11603;44.910;8.630;2023-05-29T09:41:21;100588.75;;;24.46;100.00
22872;BME280;11603;44.910;8.630;2023-05-29T09:43:50;100600.03;;;24.80;100.00
22872;BME280;11603;44.910;8.630;2023-05-29T09:46:16;100596.19;;;25.04;100.00
22872;BME280;11603;44.910;8.630;2023-05-29T09:48:45;100590.81;;;25.11;100.00
22872;BME280;11603;44.910;8.630;2023-05-29T09:51:21;100598.16;;;25.25;100.00
22872;BME280;11603;44.910;8.630;2023-05-29T09:53:47;100591.75;;;25.33;100.00
22872;BME280;11603;44.910;8.630;2023-05-29T09:56:15;100592.81;;;25.17;100.00
22872;BME280;11603;44.910;8.630;2023-05-29T09:58:43;100589.97;;;25.25;100.00
22872;BME280;11603;44.910;8.630;2023-05-29T10:01:13;100589.97;;;25.25;100.00
22872;BME280;11603;44.910;8.630;2023-05-29T10:03:41;100594.50;;;24.88;100.00
22872;BME280;11603;44.910;8.630;2023-05-29T10:06:10;100591.19;;;24.93;100.00
22872;BME280;11603;44.910;8.630;2023-05-29T10:08:37;100585.63;;;25.01;100.00
22872;BME280;11603;44.910;8.630;2023-05-29T10:11:08;100591.75;;;24.88;100.00
22872;BME280;11603;44.910;8.630;2023-05-29T10:13:42;100586.56;;;25.08;100.00
22872;BME280;11603;44.910;8.630;2023-05-29T10:16:14;100592.03;;;25.23;100.00
22872;BME280;11603;44.910;8.630;2023-05-29T10:18:43;100590.34;;;25.07;100.00
22872;BME280;11603;44.910;8.630;2023-05-29T10:21:12;100578.47;;;25.00;100.00
22872;BME280;11603;44.910;8.630;2023-05-29T10:23:38;100593.75;;;24.95;100.00
22872;BME280;11603;44.910;8.630;2023-05-29T10:26:26;100584.25;;;24.82;100.00
22872;BME280;11603;44.910;8.630;2023-05-29T10:29:03;100582.28;;;24.76;100.00
22872;BME280;11603;44.910;8.630;2023-05-29T10:35:09;100572.69;;;24.95;100.00
22872;BME280;11603;44.910;8.630;2023-05-29T10:37:35;100580.44;;;25.06;100.00
22872;BME280;11603;44.910;8.630;2023-05-29T10:40:08;100581.31;;;25.07;100.00
22872;BME280;11603;44.910;8.630;2023-05-29T10:42:44;100576.28;;;25.25;100.00
22872;BME280;11603;44.910;8.630;2023-05-29T10:45:11;100577.78;;;25.27;100.00
22872;BME280;11603;44.910;8.630;2023-05-29T10:47:38;100574.50;;;25.17;100.00
22872;BME280;11603;44.910;8.630;2023-05-29T10:50:04;100568.03;;;25.40;100.00
22872;BME280;11603;44.910;8.630;2023-05-29T10:52:34;100568.28;;;25.45;100.00
22872;BME280;11603;44.910;8.630;2023-05-29T10:55:01;100569.72;;;25.41;100.00
22872;BME280;11603;44.910;8.630;2023-05-29T10:57:29;100571.56;;;25.55;100.00
22872;BME280;11603;44.910;8.630;2023-05-29T11:00:05;100561.78;;;25.46;100.00
22872;BME280;11603;44.910;8.630;2023-05-29T11:02:40;100563.09;;;25.86;100.00
22872;BME280;11603;44.910;8.630;2023-05-29T11:05:26;100560.69;;;25.25;100.00
22872;BME280;11603;44.910;8.630;2023-05-29T11:07:56;100565.25;;;25.04;100.00
22872;BME280;11603;44.910;8.630;2023-05-29T11:13:33;100559.47;;;25.13;100.00
22872;BME280;11603;44.910;8.630;2023-05-29T11:16:11;100557.22;;;24.87;100.00
22872;BME280;11603;44.910;8.630;2023-05-29T11:18:41;100547.22;;;25.09;100.00
22872;BME280;11603;44.910;8.630;2023-05-29T11:24:02;100545.38;;;24.72;100.00
22872;BME280;11603;44.910;8.630;2023-05-29T11:26:32;100547.56;;;24.77;100.00
22872;BME280;11603;44.910;8.630;2023-05-29T11:29:03;100542.47;;;25.03;100.00
22872;BME280;11603;44.910;8.630;2023-05-29T11:31:32;100542.16;;;25.42;100.00
22872;BME280;11603;44.910;8.630;2023-05-29T11:34:02;100540.00;;;25.38;100.00
22872;BME280;11603;44.910;8.630;2023-05-29T11:36:33;100545.19;;;25.33;100.00
22872;BME280;11603;44.910;8.630;2023-05-29T11:39:00;100535.31;;;25.53;100.00
22872;BME280;11603;44.910;8.630;2023-05-29T11:41:26;100542.03;;;25.50;100.00
22872;BME280;11603;44.910;8.630;2023-05-29T11:43:56;100534.16;;;25.26;100.00
22872;BME280;11603;44.910;8.630;2023-05-29T11:46:23;100533.44;;;25.53;100.00
22872;BME280;11603;44.910;8.630;2023-05-29T11:48:49;100523.06;;;25.85;100.00
22872;BME280;11603;44.910;8.630;2023-05-29T11:51:15;100515.72;;;25.70;100.00
22872;BME280;11603;44.910;8.630;2023-05-29T11:53:41;100534.63;;;25.65;100.00
22872;BME280;11603;44.910;8.630;2023-05-29T11:56:09;100519.31;;;25.92;100.00
22872;BME280;11603;44.910;8.630;2023-05-29T11:58:37;100507.94;;;26.17;100.00
22872;BME280;11603;44.910;8.630;2023-05-29T12:01:03;100513.13;;;26.05;100.00
22872;BME280;11603;44.910;8.630;2023-05-29T12:03:28;100508.50;;;26.33;99.85
22872;BME280;11603;44.910;8.630;2023-05-29T12:05:54;100503.34;;;26.45;100.00
22872;BME280;11603;44.910;8.630;2023-05-29T12:08:22;100487.22;;;26.63;98.67
22872;BME280;11603;44.910;8.630;2023-05-29T12:10:49;100498.88;;;26.72;99.92
22872;BME280;11603;44.910;8.630;2023-05-29T12:13:18;100490.03;;;26.76;99.56
22872;BME280;11603;44.910;8.630;2023-05-29T12:15:44;100481.97;;;26.68;99.67
22872;BME280;11603;44.910;8.630;2023-05-29T12:18:10;100486.97;;;26.30;99.73
22872;BME280;11603;44.910;8.630;2023-05-29T12:20:36;100499.53;;;25.76;100.00
22872;BME280;11603;44.910;8.630;2023-05-29T12:23:02;100489.38;;;25.69;100.00
22872;BME280;11603;44.910;8.630;2023-05-29T12:25:28;100490.34;;;25.62;100.00
22872;BME280;11603;44.910;8.630;2023-05-29T12:27:57;100484.53;;;25.93;100.00
22872;BME280;11603;44.910;8.630;2023-05-29T12:30:23;100487.41;;;26.06;98.79
22872;BME280;11603;44.910;8.630;2023-05-29T12:32:51;100483.41;;;26.08;94.86
22872;BME280;11603;44.910;8.630;2023-05-29T12:37:47;100482.59;;;26.36;92.28
22872;BME280;11603;44.910;8.630;2023-05-29T12:40:21;100476.13;;;26.50;91.76
22872;BME280;11603;44.910;8.630;2023-05-29T12:42:47;100472.50;;;26.77;88.80
22872;BME280;11603;44.910;8.630;2023-05-29T12:45:14;100477.50;;;27.02;86.64
22872;BME280;11603;44.910;8.630;2023-05-29T12:47:50;100468.09;;;26.83;85.79
22872;BME280;11603;44.910;8.630;2023-05-29T12:50:51;100473.25;;;26.92;85.97
22872;BME280;11603;44.910;8.630;2023-05-29T12:53:16;100467.22;;;27.10;81.91
22872;BME280;11603;44.910;8.630;2023-05-29T12:55:43;100466.06;;;26.57;83.98
22872;BME280;11603;44.910;8.630;2023-05-29T12:58:10;100464.06;;;26.38;86.02
22872;BME280;11603;44.910;8.630;2023-05-29T13:00:41;100462.47;;;26.01;87.84
22872;BME280;11603;44.910;8.630;2023-05-29T13:03:07;100463.00;;;26.17;87.99
22872;BME280;11603;44.910;8.630;2023-05-29T13:05:33;100454.31;;;26.35;86.21
22872;BME280;11603;44.910;8.630;2023-05-29T13:07:59;100451.78;;;26.75;84.28
22872;BME280;11603;44.910;8.630;2023-05-29T13:10:25;100442.44;;;26.97;81.01
22872;BME280;11603;44.910;8.630;2023-05-29T13:12:54;100441.28;;;27.26;79.08